Time;durP1;ratioP1;P1;durP2;ratioP2;P2;SDS_P1;SDS_P2;PMS_P1;PMS_P2;Temp;Humidity;BMP_temperature;BMP_pressure;BME280_temperature;BME280_humidity;BME280_pressure;Samples;Min_cycle;Max_cycle;Signal;HPM_P1;HPM_P2
2021/09/08 00:00:22;;;;;;;7.25;4.90;;;;;;;16.20;60.17;100728.00;4491477;31;34144;-86
2021/09/08 00:02:53;;;;;;;7.45;4.85;;;;;;;16.13;60.36;100729.25;4480877;31;33919;-85
2021/09/08 00:05:20;;;;;;;7.40;4.47;;;;;;;16.16;60.24;100728.25;4465623;31;33088;-85
2021/09/08 00:07:48;;;;;;;7.22;4.70;;;;;;;16.08;60.60;100732.16;4481606;31;33329;-85
2021/09/08 00:10:16;;;;;;;10.82;4.72;;;;;;;16.30;59.72;100736.38;4465166;31;34434;-85
2021/09/08 00:12:44;;;;;;;7.60;5.22;;;;;;;16.26;59.58;100734.81;4480396;31;34100;-85
2021/09/08 00:15:12;;;;;;;8.48;4.90;;;;;;;16.25;59.63;100733.09;4491204;31;33378;-85
2021/09/08 00:17:41;;;;;;;7.55;4.35;;;;;;;16.02;60.15;100743.16;4482955;31;34355;-86
2021/09/08 00:20:09;;;;;;;8.13;4.65;;;;;;;15.88;60.66;100730.53;4480353;31;34175;-85
2021/09/08 00:22:37;;;;;;;9.52;4.85;;;;;;;15.80;60.97;100737.19;4494557;31;33833;-85
2021/09/08 00:25:06;;;;;;;11.00;4.65;;;;;;;15.84;60.96;100728.09;4476835;31;33017;-85
2021/09/08 00:27:35;;;;;;;9.27;4.62;;;;;;;15.90;60.56;100726.91;4465125;31;32260;-84
2021/09/08 00:30:11;;;;;;;8.90;4.62;;;;;;;15.77;61.01;100727.56;4477206;31;35069;-85
2021/09/08 00:32:40;;;;;;;7.22;4.95;;;;;;;15.84;60.76;100728.94;4463708;31;32795;-85
2021/09/08 00:35:09;;;;;;;9.38;4.68;;;;;;;15.83;60.76;100718.37;4480978;31;33014;-85
2021/09/08 00:37:39;;;;;;;7.03;4.50;;;;;;;15.67;61.30;100720.12;4490774;31;33604;-85
2021/09/08 00:40:08;;;;;;;9.82;4.30;;;;;;;15.79;60.83;100723.00;4478685;32;33675;-84
2021/09/08 00:42:36;;;;;;;5.50;4.07;;;;;;;15.85;60.58;100727.16;4490442;31;34727;-84
2021/09/08 00:45:06;;;;;;;5.97;4.60;;;;;;;15.59;61.50;100720.47;4464370;31;32851;-85
2021/09/08 00:47:34;;;;;;;9.05;4.50;;;;;;;15.60;61.45;100720.38;4493417;31;34178;-83
2021/09/08 00:50:03;;;;;;;6.60;4.40;;;;;;;15.79;60.88;100724.81;4476385;31;33235;-84
2021/09/08 00:52:32;;;;;;;7.05;3.67;;;;;;;15.81;60.95;100723.81;4490572;31;34230;-83
2021/09/08 00:55:01;;;;;;;7.75;5.32;;;;;;;15.81;60.83;100736.25;4480494;31;34196;-84
2021/09/08 00:57:31;;;;;;;7.95;4.80;;;;;;;15.85;60.81;100727.16;4477182;32;33089;-84
2021/09/08 01:00:02;;;;;;;8.50;4.60;;;;;;;15.70;61.27;100731.44;4492817;31;33360;-84
2021/09/08 01:02:30;;;;;;;6.47;4.18;;;;;;;15.73;61.44;100730.44;4476872;31;32254;-83
2021/09/08 01:05:01;;;;;;;9.43;5.37;;;;;;;15.66;61.49;100731.69;4478666;31;34147;-83
2021/09/08 01:07:29;;;;;;;6.57;4.43;;;;;;;15.69;61.46;100736.88;4478148;31;34000;-84
2021/09/08 01:10:00;;;;;;;6.82;4.53;;;;;;;15.73;61.36;100741.97;4491130;31;35066;-83
2021/09/08 01:12:29;;;;;;;7.97;4.55;;;;;;;15.82;60.95;100743.31;4479562;32;33860;-84
2021/09/08 01:14:57;;;;;;;7.68;4.55;;;;;;;15.75;61.51;100747.19;4491494;31;33448;-84
2021/09/08 01:17:25;;;;;;;7.40;4.82;;;;;;;15.64;62.09;100746.88;4488080;31;34931;-84
2021/09/08 01:19:55;;;;;;;10.13;4.50;;;;;;;15.87;61.29;100743.94;4474836;32;33705;-84
2021/09/08 01:22:29;;;;;;;6.78;4.45;;;;;;;15.84;61.32;100741.41;4493203;31;34579;-84
2021/09/08 01:24:57;;;;;;;6.57;4.50;;;;;;;15.81;61.42;100738.94;4494070;31;34255;-84
2021/09/08 01:27:25;;;;;;;7.82;4.90;;;;;;;15.91;61.07;100740.19;4487571;31;33718;-86
2021/09/08 01:29:53;;;;;;;8.27;3.72;;;;;;;15.83;61.36;100742.34;4480498;31;33379;-85
2021/09/08 01:32:32;;;;;;;8.40;4.18;;;;;;;15.57;62.32;100743.59;4481414;32;33683;-85
2021/09/08 01:35:00;;;;;;;14.25;4.95;;;;;;;15.69;62.05;100744.84;4479270;31;33169;-85
2021/09/08 01:37:28;;;;;;;7.20;4.22;;;;;;;15.80;61.43;100735.37;4478949;31;33884;-85
2021/09/08 01:39:56;;;;;;;7.62;4.65;;;;;;;15.78;61.45;100734.59;4477632;31;34625;-85
2021/09/08 01:42:23;;;;;;;5.75;4.47;;;;;;;15.98;60.50;100736.25;4481070;31;34053;-84
2021/09/08 01:44:51;;;;;;;7.75;3.90;;;;;;;15.76;61.37;100738.25;4482235;31;32616;-84
2021/09/08 01:47:18;;;;;;;9.18;5.12;;;;;;;15.60;61.47;100733.69;4465984;31;34297;-83
2021/09/08 01:49:46;;;;;;;8.00;4.45;;;;;;;15.81;60.75;100741.59;4481755;31;33988;-83
2021/09/08 01:52:14;;;;;;;7.05;3.70;;;;;;;15.48;61.95;100730.78;4492837;31;34274;-83
2021/09/08 01:54:41;;;;;;;11.43;4.47;;;;;;;15.52;61.79;100733.19;4477764;31;32589;-83
2021/09/08 01:57:09;;;;;;;6.28;3.55;;;;;;;15.63;61.47;100735.34;4490393;31;33597;-84
2021/09/08 01:59:37;;;;;;;8.30;4.60;;;;;;;15.43;62.08;100739.00;4480769;31;34402;-84
2021/09/08 02:02:05;;;;;;;8.70;4.20;;;;;;;15.44;62.08;100738.03;4491386;31;36333;-84
2021/09/08 02:04:33;;;;;;;10.80;4.30;;;;;;;15.75;60.91;100729.41;4493680;31;32754;-83
2021/09/08 02:07:01;;;;;;;8.55;5.10;;;;;;;15.61;61.30;100734.53;4481718;31;33915;-84
2021/09/08 02:09:28;;;;;;;8.85;4.62;;;;;;;15.46;61.74;100732.63;4494024;31;34118;-85
2021/09/08 02:11:57;;;;;;;7.97;4.95;;;;;;;15.44;61.76;100735.37;4467285;31;34078;-85
2021/09/08 02:14:25;;;;;;;6.72;4.30;;;;;;;15.40;61.89;100739.13;4480689;31;32833;-84
2021/09/08 02:16:52;;;;;;;7.65;4.43;;;;;;;15.13;62.49;100745.78;4491807;31;33581;-84
2021/09/08 02:19:20;;;;;;;6.70;4.25;;;;;;;15.15;62.59;100739.47;4479494;31;33948;-85
2021/09/08 02:21:49;;;;;;;9.00;4.00;;;;;;;15.46;61.48;100736.16;4489760;31;34347;-85
2021/09/08 02:24:46;;;;;;;;;;;;;;;;;;;;;
2021/09/08 02:31:29;;;;;;;9.95;4.47;;;;;;;15.68;60.82;100732.47;4380494;32;33730;-85
2021/09/08 02:33:57;;;;;;;7.57;3.97;;;;;;;14.96;62.92;100752.75;4426295;32;33689;-85
2021/09/08 02:36:24;;;;;;;7.72;3.90;;;;;;;15.21;62.20;100733.84;4431700;32;33752;-85
2021/09/08 02:38:52;;;;;;;6.00;4.18;;;;;;;15.44;61.61;100734.53;4432380;32;33125;-86
2021/09/08 02:41:22;;;;;;;7.60;4.47;;;;;;;14.97;62.88;100741.19;4432356;32;34486;-86
2021/09/08 02:43:50;;;;;;;6.95;3.70;;;;;;;14.96;62.85;100739.47;4421678;32;32972;-86
2021/09/08 02:46:18;;;;;;;6.43;3.58;;;;;;;14.76;63.50;100735.03;4430589;32;33457;-85
2021/09/08 02:48:46;;;;;;;7.75;4.00;;;;;;;15.00;62.79;100735.72;4447016;32;34320;-86
2021/09/08 02:51:14;;;;;;;7.32;4.05;;;;;;;14.97;62.70;100733.19;4469541;31;34271;-85
2021/09/08 02:53:41;;;;;;;6.95;4.00;;;;;;;15.03;62.54;100729.38;4477522;31;33089;-85
2021/09/08 02:56:10;;;;;;;6.97;4.53;;;;;;;14.92;62.50;100732.56;4478349;31;32456;-84
2021/09/08 02:58:38;;;;;;;8.00;4.70;;;;;;;15.02;62.05;100733.00;4464866;31;34031;-84
2021/09/08 03:01:05;;;;;;;5.68;3.95;;;;;;;15.02;62.21;100739.16;4492620;31;34331;-84
2021/09/08 03:03:33;;;;;;;9.30;4.40;;;;;;;14.96;62.23;100738.59;4466653;31;34019;-84
2021/09/08 03:06:01;;;;;;;5.10;3.90;;;;;;;14.96;62.05;100739.47;4489850;31;34423;-85
2021/09/08 03:08:29;;;;;;;7.55;4.45;;;;;;;14.93;62.15;100736.06;4479610;31;33589;-85
2021/09/08 03:10:57;;;;;;;5.85;3.95;;;;;;;14.96;62.17;100742.13;4479736;31;33884;-85
2021/09/08 03:13:24;;;;;;;7.15;4.18;;;;;;;14.93;61.94;100739.59;4488824;31;33947;-85
2021/09/08 03:15:52;;;;;;;6.07;3.60;;;;;;;14.97;61.64;100741.19;4492216;31;33120;-84
2021/09/08 03:18:20;;;;;;;8.70;4.53;;;;;;;14.91;61.78;100738.81;4472321;31;33004;-85
2021/09/08 03:20:48;;;;;;;9.07;4.45;;;;;;;14.80;62.04;100738.44;4457217;32;33243;-84
2021/09/08 03:23:15;;;;;;;7.72;4.25;;;;;;;14.85;61.96;100744.41;4489674;31;33981;-83
2021/09/08 03:25:43;;;;;;;12.10;4.87;;;;;;;14.62;62.89;100739.28;4492485;31;34422;-83
2021/09/08 03:28:11;;;;;;;7.68;3.70;;;;;;;14.87;61.90;100745.22;4479486;31;33474;-83
2021/09/08 03:30:38;;;;;;;9.35;4.12;;;;;;;14.67;62.25;100748.78;4477554;31;34093;-83
2021/09/08 03:33:06;;;;;;;6.43;4.57;;;;;;;14.56;62.28;100746.59;4477773;31;34818;-83
2021/09/08 03:35:34;;;;;;;5.10;3.90;;;;;;;14.57;62.47;100740.38;4479957;31;33251;-83
2021/09/08 03:38:01;;;;;;;6.20;3.78;;;;;;;14.73;61.82;100748.50;4480275;31;33753;-83
2021/09/08 03:40:29;;;;;;;6.75;4.40;;;;;;;14.56;62.24;100735.09;4481097;31;33412;-82
2021/09/08 03:42:57;;;;;;;5.47;3.67;;;;;;;14.52;62.47;100741.47;4495023;31;33869;-85
2021/09/08 03:45:24;;;;;;;5.90;4.28;;;;;;;14.52;62.31;100745.00;4480846;31;33249;-83
2021/09/08 03:47:52;;;;;;;10.63;3.97;;;;;;;14.76;61.36;100742.16;4480741;31;32874;-84
2021/09/08 03:50:20;;;;;;;10.95;4.22;;;;;;;14.54;62.04;100745.81;4481138;32;35084;-85
2021/09/08 03:52:50;;;;;;;6.00;4.10;;;;;;;14.41;62.47;100744.59;4469964;31;32746;-84
2021/09/08 03:55:17;;;;;;;7.22;4.45;;;;;;;14.45;62.29;100740.88;4479807;31;32941;-85
2021/09/08 03:57:45;;;;;;;5.82;3.70;;;;;;;14.35;62.54;100744.88;4481303;31;33998;-83
2021/09/08 04:00:13;;;;;;;7.70;4.10;;;;;;;14.40;62.11;100745.53;4475939;31;33134;-83
2021/09/08 04:02:41;;;;;;;8.60;4.75;;;;;;;14.35;62.26;100747.53;4493182;31;33796;-83
2021/09/08 04:05:10;;;;;;;6.93;4.03;;;;;;;14.25;62.56;100751.53;4479357;31;33135;-83
2021/09/08 04:07:38;;;;;;;7.70;4.53;;;;;;;14.26;62.33;100758.56;4478334;31;33626;-83
2021/09/08 04:10:07;;;;;;;7.85;4.93;;;;;;;14.30;62.16;100744.22;4492156;31;34098;-83
2021/09/08 04:12:35;;;;;;;7.43;3.75;;;;;;;14.19;62.56;100751.78;4477859;31;33724;-83
2021/09/08 04:15:03;;;;;;;6.32;3.85;;;;;;;14.40;61.69;100740.22;4468406;31;32974;-83
2021/09/08 04:17:32;;;;;;;6.87;4.18;;;;;;;14.51;61.33;100753.91;4482647;31;32774;-83
2021/09/08 04:20:00;;;;;;;5.93;3.58;;;;;;;14.08;63.08;100753.09;4489757;31;35007;-83
2021/09/08 04:22:28;;;;;;;8.35;4.07;;;;;;;13.94;63.23;100757.28;4465076;31;32969;-83
2021/09/08 04:24:56;;;;;;;5.75;3.28;;;;;;;14.01;62.91;100764.06;4477715;31;32391;-83
2021/09/08 04:27:28;;;;;;;7.90;4.63;;;;;;;14.06;62.67;100767.41;4492453;31;33512;-83
2021/09/08 04:29:55;;;;;;;7.57;4.37;;;;;;;14.29;61.96;100764.62;4489772;31;34475;-84
2021/09/08 04:32:23;;;;;;;9.98;4.18;;;;;;;14.35;61.83;100774.09;4475581;32;32652;-83
2021/09/08 04:34:51;;;;;;;7.35;4.35;;;;;;;14.12;62.55;100769.78;4477981;31;33982;-83
2021/09/08 04:37:18;;;;;;;13.85;4.70;;;;;;;14.21;62.27;100771.19;4491751;31;33829;-84
2021/09/08 04:39:46;;;;;;;8.23;5.60;;;;;;;14.11;62.57;100760.09;4463480;31;34389;-84
2021/09/08 04:42:14;;;;;;;8.20;4.53;;;;;;;14.22;62.62;100770.25;4493529;31;33690;-85
2021/09/08 04:44:42;;;;;;;10.15;4.72;;;;;;;14.31;62.12;100762.75;4480684;32;33552;-84
2021/09/08 04:47:10;;;;;;;9.00;4.53;;;;;;;14.32;62.08;100767.12;4483742;31;33127;-84
2021/09/08 04:49:37;;;;;;;8.77;4.90;;;;;;;14.31;62.35;100773.38;4478249;32;33607;-83
2021/09/08 04:52:05;;;;;;;9.10;4.43;;;;;;;14.24;62.80;100771.03;4458854;31;34178;-84
2021/09/08 04:54:32;;;;;;;8.27;4.72;;;;;;;14.23;63.32;100778.12;4472127;32;33089;-85
2021/09/08 04:57:00;;;;;;;9.60;4.95;;;;;;;14.26;63.56;100771.84;4458796;32;32868;-85
2021/09/08 04:59:27;;;;;;;11.15;4.93;;;;;;;14.31;63.17;100769.84;4491945;31;33958;-84
2021/09/08 05:01:55;;;;;;;8.60;5.40;;;;;;;14.40;63.21;100768.59;4486700;31;33659;-84
2021/09/08 05:04:23;;;;;;;11.38;5.22;;;;;;;14.58;62.74;100771.31;4472601;32;32374;-84
2021/09/08 05:06:50;;;;;;;8.18;5.10;;;;;;;14.80;62.14;100779.19;4485118;32;33909;-84
2021/09/08 05:09:18;;;;;;;5.55;4.72;;;;;;;14.49;63.22;100782.37;4490262;31;34500;-84
2021/09/08 05:11:46;;;;;;;7.47;4.45;;;;;;;14.49;63.57;100790.34;4464873;31;33336;-84
2021/09/08 05:14:13;;;;;;;10.63;4.82;;;;;;;14.93;62.48;100782.16;4484300;31;34256;-84
2021/09/08 05:16:41;;;;;;;7.37;4.60;;;;;;;14.85;63.05;100786.94;4475060;31;33942;-84
2021/09/08 05:19:09;;;;;;;12.95;5.22;;;;;;;15.02;62.61;100792.34;4497600;31;34875;-84
2021/09/08 05:21:36;;;;;;;9.20;4.62;;;;;;;14.90;63.11;100787.59;4496611;31;33836;-84
2021/09/08 05:24:04;;;;;;;10.00;4.75;;;;;;;14.93;62.79;100795.44;4491732;31;33498;-84
2021/09/08 05:26:32;;;;;;;8.90;5.15;;;;;;;15.25;62.03;100787.78;4471112;31;33304;-85
2021/09/08 05:28:59;;;;;;;10.57;5.97;;;;;;;15.53;61.54;100792.63;4481057;31;33431;-84
2021/09/08 05:31:27;;;;;;;9.57;5.37;;;;;;;15.75;60.39;100788.00;4477270;31;33774;-85
2021/09/08 05:33:55;;;;;;;9.82;6.80;;;;;;;15.78;60.70;100792.31;4480574;32;34100;-85
2021/09/08 05:36:22;;;;;;;14.70;6.65;;;;;;;15.76;61.25;100796.84;4471972;32;33612;-84
2021/09/08 05:38:50;;;;;;;12.45;6.70;;;;;;;15.71;61.78;100796.22;4479712;32;34648;-84
2021/09/08 05:41:18;;;;;;;10.07;5.87;;;;;;;15.69;62.72;100796.28;4475150;32;33576;-84
2021/09/08 05:43:45;;;;;;;12.25;6.22;;;;;;;15.89;61.65;100795.31;4472437;32;33475;-84
2021/09/08 05:46:13;;;;;;;9.63;6.03;;;;;;;15.96;61.03;100793.22;4488673;31;33928;-84
2021/09/08 05:48:41;;;;;;;12.68;5.40;;;;;;;15.94;61.25;100793.28;4464097;32;33638;-84
2021/09/08 05:51:08;;;;;;;14.30;5.43;;;;;;;15.96;61.57;100786.09;4484828;31;34741;-85
2021/09/08 05:53:36;;;;;;;11.48;5.62;;;;;;;16.00;62.16;100798.31;4476149;31;33321;-82
2021/09/08 05:56:04;;;;;;;12.75;5.78;;;;;;;16.04;62.49;100799.84;4474551;31;32887;-81
2021/09/08 05:58:31;;;;;;;10.57;5.97;;;;;;;16.47;60.80;100794.13;4479751;31;33304;-81
2021/09/08 06:00:59;;;;;;;9.73;5.35;;;;;;;16.67;60.82;100791.28;4483675;31;32783;-84
2021/09/08 06:03:28;;;;;;;17.95;6.40;;;;;;;16.76;59.32;100787.28;4478476;31;33640;-83
2021/09/08 06:05:55;;;;;;;8.13;4.15;;;;;;;16.93;58.82;100787.25;4465642;32;32926;-83
2021/09/08 06:08:23;;;;;;;15.07;5.45;;;;;;;16.70;58.82;100790.25;4463275;32;33058;-83
2021/09/08 06:10:51;;;;;;;7.97;5.20;;;;;;;17.21;58.03;100780.41;4490551;31;32840;-82
2021/09/08 06:13:18;;;;;;;8.68;5.37;;;;;;;17.56;59.14;100784.59;4478613;31;33503;-83
2021/09/08 06:15:46;;;;;;;8.05;5.43;;;;;;;17.37;57.12;100783.91;4476913;31;34311;-82
2021/09/08 06:18:14;;;;;;;8.18;4.57;;;;;;;17.92;57.62;100780.78;4471443;32;33516;-82
2021/09/08 06:20:41;;;;;;;6.93;4.35;;;;;;;17.85;55.65;100782.97;4495893;31;34468;-83
2021/09/08 06:23:11;;;;;;;7.07;4.40;;;;;;;18.06;54.91;100783.50;4481800;31;33103;-83
2021/09/08 06:25:39;;;;;;;8.13;3.95;;;;;;;18.03;54.71;100785.50;4476057;31;33519;-83
2021/09/08 06:28:07;;;;;;;5.87;3.92;;;;;;;18.12;53.22;100784.97;4479755;31;33938;-83
2021/09/08 06:30:34;;;;;;;7.07;4.45;;;;;;;18.32;51.91;100791.78;4480495;31;32748;-82
2021/09/08 06:33:02;;;;;;;9.32;3.83;;;;;;;18.48;50.95;100789.06;4462508;32;34226;-83
2021/09/08 06:35:29;;;;;;;9.68;4.15;;;;;;;18.57;51.81;100792.03;4466460;31;33146;-83
2021/09/08 06:37:57;;;;;;;11.68;4.05;;;;;;;19.05;49.41;100787.28;4463275;31;33341;-83
2021/09/08 06:40:25;;;;;;;7.57;5.00;;;;;;;19.11;49.01;100784.22;4478784;31;33692;-83
2021/09/08 06:42:52;;;;;;;6.57;4.40;;;;;;;18.88;49.82;100787.47;4480698;31;33308;-83
2021/09/08 06:45:22;;;;;;;7.25;4.32;;;;;;;19.53;49.76;100777.06;4476331;31;33266;-83
2021/09/08 06:47:51;;;;;;;8.93;4.85;;;;;;;19.57;48.76;100783.94;4479456;31;34716;-83
2021/09/08 06:50:18;;;;;;;7.65;4.53;;;;;;;19.71;47.24;100787.56;4492318;31;33231;-82
2021/09/08 06:52:45;;;;;;;8.13;4.87;;;;;;;19.89;46.46;100789.00;4481097;31;32334;-83
2021/09/08 06:55:13;;;;;;;7.07;4.43;;;;;;;20.05;45.69;100781.66;4464985;31;32802;-82
2021/09/08 06:57:41;;;;;;;11.90;4.25;;;;;;;20.28;44.39;100789.97;4473525;31;33648;-83
2021/09/08 07:00:10;;;;;;;10.60;4.78;;;;;;;19.95;45.76;100791.28;4489287;31;33569;-83
2021/09/08 07:02:39;;;;;;;12.07;5.70;;;;;;;20.02;46.50;100797.94;4468313;31;32262;-83
2021/09/08 07:05:07;;;;;;;9.10;4.45;;;;;;;19.98;45.72;100793.75;4474260;31;32977;-82
2021/09/08 07:07:35;;;;;;;12.73;4.55;;;;;;;19.91;45.69;100789.75;4493862;31;34064;-83
2021/09/08 07:10:04;;;;;;;8.05;5.32;;;;;;;20.18;45.79;100787.91;4478128;31;34567;-83
2021/09/08 07:12:31;;;;;;;13.95;4.82;;;;;;;20.36;45.31;100796.50;4496055;31;33408;-83
2021/09/08 07:14:58;;;;;;;9.52;4.78;;;;;;;20.50;46.74;100792.91;4480843;31;33688;-83
2021/09/08 07:17:26;;;;;;;9.70;5.18;;;;;;;20.80;45.29;100789.06;4475926;32;35102;-83
2021/09/08 07:19:54;;;;;;;9.90;4.32;;;;;;;20.96;44.22;100787.00;4494356;31;34600;-82
2021/09/08 07:22:21;;;;;;;12.00;5.32;;;;;;;21.02;43.30;100793.75;4482923;31;33590;-83
2021/09/08 07:24:49;;;;;;;9.23;4.87;;;;;;;21.17;43.54;100798.91;4481046;31;33324;-83
2021/09/08 07:27:17;;;;;;;7.70;4.40;;;;;;;21.24;43.09;100793.91;4487312;31;34677;-84
2021/09/08 07:29:45;;;;;;;9.00;4.47;;;;;;;21.36;42.04;100786.81;4491664;31;34265;-83
2021/09/08 07:32:13;;;;;;;8.52;4.85;;;;;;;21.00;44.55;100791.19;4480094;31;33313;-83
2021/09/08 07:34:40;;;;;;;8.43;4.32;;;;;;;21.26;42.25;100796.50;4495250;31;34875;-83
2021/09/08 07:37:08;;;;;;;15.13;4.45;;;;;;;21.40;42.63;100782.94;4476253;31;33516;-83
2021/09/08 07:39:36;;;;;;;8.80;4.40;;;;;;;21.97;43.16;100793.00;4493100;31;34613;-83
2021/09/08 07:42:04;;;;;;;7.55;4.47;;;;;;;21.82;40.92;100794.19;4464000;31;33306;-83
2021/09/08 07:44:32;;;;;;;6.65;3.75;;;;;;;21.71;40.54;100787.78;4489673;31;34169;-83
2021/09/08 07:47:00;;;;;;;10.23;4.87;;;;;;;22.31;40.40;100793.16;4477065;31;34058;-83
2021/09/08 07:49:27;;;;;;;7.18;4.03;;;;;;;21.98;40.47;100784.84;4465483;31;32928;-84
2021/09/08 07:51:55;;;;;;;6.75;4.05;;;;;;;22.08;39.09;100784.16;4490631;31;34360;-83
2021/09/08 07:54:23;;;;;;;10.05;4.50;;;;;;;22.09;39.57;100786.72;4474704;31;33674;-83
2021/09/08 07:56:50;;;;;;;9.68;5.00;;;;;;;22.43;39.90;100790.38;4477282;32;33432;-83
2021/09/08 07:59:18;;;;;;;5.90;3.58;;;;;;;22.79;40.78;100782.22;4465098;31;33104;-84
2021/09/08 08:01:46;;;;;;;6.62;4.10;;;;;;;23.00;37.42;100777.88;4481134;31;33361;-83
2021/09/08 08:04:15;;;;;;;5.95;3.78;;;;;;;22.97;37.46;100778.09;4477964;31;33577;-83
2021/09/08 08:06:43;;;;;;;12.57;4.75;;;;;;;23.04;38.59;100787.44;4468384;31;33524;-83
2021/09/08 08:09:10;;;;;;;7.25;3.95;;;;;;;22.87;37.77;100779.78;4481437;32;33567;-83
2021/09/08 08:11:38;;;;;;;7.57;3.47;;;;;;;22.86;36.60;100786.16;4475985;31;33128;-83
2021/09/08 08:14:05;;;;;;;10.15;3.83;;;;;;;23.24;36.66;100770.50;4481833;31;34222;-83
2021/09/08 08:16:36;;;;;;;9.80;3.83;;;;;;;23.11;36.30;100785.94;4478604;31;33323;-84
2021/09/08 08:19:04;;;;;;;8.13;4.50;;;;;;;23.32;37.56;100779.81;4484219;31;34082;-84
2021/09/08 08:21:32;;;;;;;5.00;4.00;;;;;;;23.51;35.81;100778.16;4492183;31;33882;-84
2021/09/08 08:24:00;;;;;;;8.13;3.62;;;;;;;23.39;36.62;100779.16;4489044;31;33773;-84
2021/09/08 08:26:29;;;;;;;5.70;3.58;;;;;;;23.91;36.38;100779.41;4477097;31;33821;-84
2021/09/08 08:28:57;;;;;;;8.38;3.58;;;;;;;24.09;38.10;100782.41;4474952;31;34578;-84
2021/09/08 08:31:25;;;;;;;4.18;3.25;;;;;;;24.31;34.80;100781.41;4486782;31;33033;-84
2021/09/08 08:33:53;;;;;;;7.70;3.45;;;;;;;24.60;35.04;100774.41;4490114;31;34291;-83
2021/09/08 08:36:21;;;;;;;5.80;3.53;;;;;;;24.41;34.16;100774.28;4491426;31;32891;-84
2021/09/08 08:38:48;;;;;;;6.43;3.83;;;;;;;24.59;35.07;100780.78;4479930;31;33530;-84
2021/09/08 08:41:16;;;;;;;6.32;3.00;;;;;;;24.71;34.49;100774.31;4467385;31;32728;-84
2021/09/08 08:43:44;;;;;;;8.25;3.80;;;;;;;24.98;35.49;100776.44;4489316;31;32894;-84
2021/09/08 08:46:12;;;;;;;9.88;3.70;;;;;;;24.70;34.73;100778.00;4478776;31;34865;-84
2021/09/08 08:48:40;;;;;;;7.93;3.35;;;;;;;25.24;33.30;100776.81;4482844;31;33808;-83
2021/09/08 08:51:08;;;;;;;6.32;4.05;;;;;;;24.98;34.31;100776.44;4494270;31;33375;-84
2021/09/08 08:53:36;;;;;;;5.55;3.55;;;;;;;25.31;34.04;100769.03;4472531;31;34321;-84
2021/09/08 08:56:04;;;;;;;3.85;2.75;;;;;;;25.06;33.87;100773.03;4480503;31;33097;-84
2021/09/08 08:58:31;;;;;;;5.00;3.53;;;;;;;25.51;33.07;100764.53;4480499;31;33691;-84
2021/09/08 09:01:18;;;;;;;6.75;3.28;;;;;;;25.32;32.29;100768.03;4491289;31;33518;-85
2021/09/08 09:04:04;;;;;;;3.05;2.22;;;;;;;25.36;32.60;100769.47;4489866;31;34756;-84
2021/09/08 09:06:33;;;;;;;5.82;3.17;;;;;;;25.62;33.34;100769.78;4477145;31;34175;-84
2021/09/08 09:09:07;;;;;;;5.82;3.17;;;;;;;26.03;28.66;100767.84;4475601;31;34483;-85
2021/09/08 09:11:36;;;;;;;9.60;2.65;;;;;;;25.90;30.37;100767.28;4474785;31;32782;-84
2021/09/08 09:14:06;;;;;;;7.25;3.17;;;;;;;26.17;29.76;100770.13;4487890;31;33608;-85
2021/09/08 09:16:39;;;;;;;5.72;3.03;;;;;;;25.90;30.86;100768.13;4482915;31;34140;-84
2021/09/08 09:19:09;;;;;;;7.35;3.22;;;;;;;25.96;31.07;100767.56;4493324;31;33607;-84
2021/09/08 09:21:37;;;;;;;7.93;2.90;;;;;;;26.26;29.45;100763.84;4488602;31;34170;-84
2021/09/08 09:24:09;;;;;;;5.45;2.65;;;;;;;26.68;28.43;100755.37;4490239;31;34960;-84
2021/09/08 09:26:39;;;;;;;3.12;2.50;;;;;;;26.65;31.68;100762.94;4491063;31;33980;-85
2021/09/08 09:29:13;;;;;;;6.80;2.92;;;;;;;26.43;28.87;100767.69;4478350;31;34501;-84
2021/09/08 09:31:58;;;;;;;6.57;2.30;;;;;;;26.87;28.46;100762.56;4473361;31;32667;-84
2021/09/08 09:34:29;;;;;;;6.55;2.70;;;;;;;26.75;29.21;100759.19;4476657;31;32784;-85
2021/09/08 09:36:59;;;;;;;4.50;3.22;;;;;;;27.00;29.92;100752.22;4483760;31;33306;-84
2021/09/08 09:39:32;;;;;;;8.25;3.08;;;;;;;27.00;29.65;100762.22;4473588;32;34239;-84
2021/09/08 09:42:08;;;;;;;6.93;2.72;;;;;;;27.18;27.64;100754.16;4474257;31;32458;-84
2021/09/08 09:44:36;;;;;;;12.93;4.03;;;;;;;26.88;30.07;100755.28;4468921;31;33283;-84
2021/09/08 09:47:04;;;;;;;6.10;3.30;;;;;;;27.09;30.55;100750.50;4484337;31;34629;-84
2021/09/08 09:49:33;;;;;;;5.37;3.12;;;;;;;26.92;28.07;100738.59;4479599;31;34387;-84
2021/09/08 09:52:14;;;;;;;4.15;2.90;;;;;;;27.38;28.21;100741.34;4488349;31;34272;-84
2021/09/08 09:54:41;;;;;;;5.18;2.72;;;;;;;27.13;27.45;100732.94;4485350;31;33177;-84
2021/09/08 09:57:10;;;;;;;6.82;3.03;;;;;;;27.06;28.28;100745.34;4491897;31;34065;-84
2021/09/08 09:59:38;;;;;;;8.30;3.12;;;;;;;27.16;27.72;100735.34;4475847;31;34816;-85
2021/09/08 10:02:07;;;;;;;3.72;2.90;;;;;;;27.53;25.78;100731.66;4481005;31;32756;-84
2021/09/08 10:04:35;;;;;;;4.55;2.83;;;;;;;26.68;28.14;100731.00;4489743;31;32768;-85
2021/09/08 10:07:05;;;;;;;8.60;3.10;;;;;;;27.19;28.29;100726.91;4491387;31;34107;-84
2021/09/08 10:09:34;;;;;;;3.95;2.80;;;;;;;27.16;30.58;100729.09;4484447;31;34102;-84
2021/09/08 10:12:03;;;;;;;7.37;2.95;;;;;;;27.46;26.96;100715.16;4476674;32;34162;-84
2021/09/08 10:14:31;;;;;;;6.25;2.90;;;;;;;27.34;27.03;100720.97;4476422;31;33416;-83
2021/09/08 10:17:02;;;;;;;4.45;2.50;;;;;;;27.53;26.92;100727.09;4484965;31;33608;-84
2021/09/08 10:19:31;;;;;;;;;;;;;;;27.38;27.06;100734.06;4487255;31;32979;-82
2021/09/08 10:22:07;;;;;;;5.65;2.72;;;;;;;27.33;25.30;100730.09;4476985;31;33667;-81
2021/09/08 10:24:35;;;;;;;6.62;2.55;;;;;;;27.87;29.09;100720.12;4460608;32;34369;-82
2021/09/08 10:27:19;;;;;;;8.02;3.10;;;;;;;27.98;26.69;100720.75;4481365;31;34174;-82
2021/09/08 10:29:50;;;;;;;6.72;2.80;;;;;;;28.63;23.81;100701.37;4477628;31;33961;-84
2021/09/08 10:32:25;;;;;;;7.72;2.80;;;;;;;28.47;24.82;100706.69;4492639;31;33022;-86
2021/09/08 10:34:54;;;;;;;6.65;2.67;;;;;;;28.11;25.88;100708.66;4470057;31;34365;-86
2021/09/08 10:37:23;;;;;;;4.47;2.97;;;;;;;28.14;26.07;100703.72;4470739;32;33367;-87
2021/09/08 10:39:53;;;;;;;5.12;2.65;;;;;;;28.52;26.34;100698.91;4492786;31;34237;-84
2021/09/08 10:42:49;;;;;;;3.37;2.80;;;;;;;28.23;26.26;100708.22;4492656;31;34193;-84
2021/09/08 10:45:27;;;;;;;3.92;2.55;;;;;;;28.53;24.98;100695.19;4474559;31;33713;-85
2021/09/08 10:47:58;;;;;;;5.62;3.00;;;;;;;28.73;26.99;100693.94;4479179;31;33471;-84
2021/09/08 10:50:34;;;;;;;7.57;3.00;;;;;;;28.24;25.84;100690.91;4471327;31;99842;-84
2021/09/08 10:53:20;;;;;;;6.55;3.10;;;;;;;28.04;26.86;100692.13;4493306;31;33091;-84
2021/09/08 10:55:50;;;;;;;7.20;2.90;;;;;;;28.09;25.99;100687.06;4491481;31;34478;-84
2021/09/08 10:58:18;;;;;;;6.90;3.40;;;;;;;28.45;24.95;100682.41;4474155;31;34587;-84
2021/09/08 11:00:46;;;;;;;5.90;2.75;;;;;;;28.68;24.84;100690.87;4477670;31;33465;-86
2021/09/08 11:03:14;;;;;;;5.72;2.70;;;;;;;28.90;24.55;100678.53;4476852;31;33054;-87
2021/09/08 11:05:47;;;;;;;6.25;2.50;;;;;;;28.11;24.73;100690.50;4479193;31;34122;-86
2021/09/08 11:08:32;;;;;;;5.50;3.08;;;;;;;28.04;25.06;100681.25;4458101;32;33091;-83
2021/09/08 11:11:08;;;;;;;4.30;2.87;;;;;;;28.61;23.95;100678.94;4490986;31;33919;-86
2021/09/08 11:13:37;;;;;;;3.97;2.58;;;;;;;28.80;24.39;100675.09;4477735;32;33368;-86
2021/09/08 11:16:18;;;;;;;3.17;2.53;;;;;;;28.51;25.06;100679.03;4492122;31;34738;-85
2021/09/08 11:18:46;;;;;;;8.77;3.20;;;;;;;28.25;28.27;100679.06;4493154;31;34864;-85
2021/09/08 11:21:16;;;;;;;4.28;2.83;;;;;;;28.47;24.07;100674.09;4493256;31;33856;-85
2021/09/08 11:23:47;;;;;;;4.65;3.15;;;;;;;28.23;24.42;100666.63;4483616;31;33468;-85
2021/09/08 11:26:15;;;;;;;4.47;2.85;;;;;;;28.37;27.26;100676.09;4490914;31;33913;-84
2021/09/08 11:28:43;;;;;;;10.98;2.95;;;;;;;28.76;23.79;100660.13;4477838;31;34004;-84
2021/09/08 11:31:11;;;;;;;7.40;2.90;;;;;;;29.27;22.77;100663.72;4465557;31;33291;-84
2021/09/08 11:33:40;;;;;;;5.25;2.95;;;;;;;28.83;24.09;100667.47;4489552;31;33306;-85
2021/09/08 11:36:12;;;;;;;4.93;2.97;;;;;;;28.94;24.36;100660.03;4477064;31;33632;-85
2021/09/08 11:38:48;;;;;;;5.20;3.28;;;;;;;29.18;23.47;100654.69;4486452;31;33678;-85